Time;durP1;ratioP1;P1;durP2;ratioP2;P2;SDS_P1;SDS_P2;PMS_P1;PMS_P2;Temp;Humidity;BMP_temperature;BMP_pressure;BME280_temperature;BME280_humidity;BME280_pressure;Samples;Min_cycle;Max_cycle;Signal;HPM_P1;HPM_P2
2022/04/18 00:00:18;;;;;;;;;1.00;1.00;;;;;;;;4999485;28;12334;-76
2022/04/18 00:02:46;;;;;;;;;1.00;1.00;;;;;;;;5000816;28;11607;-75
2022/04/18 00:05:13;;;;;;;;;0.50;0.50;;;;;;;;5001693;28;11497;-75
2022/04/18 00:07:40;;;;;;;;;2.00;1.00;;;;;;;;5000326;28;11494;-74
2022/04/18 00:10:10;;;;;;;;;1.00;1.00;;;;;;;;5001110;28;11496;-75
2022/04/18 00:12:37;;;;;;;;;0.75;0.75;;;;;;;;4997092;28;11469;-74
2022/04/18 00:15:05;;;;;;;;;1.00;1.00;;;;;;;;5004943;28;11473;-74
2022/04/18 00:17:32;;;;;;;;;1.00;1.00;;;;;;;;4995691;28;11623;-75
2022/04/18 00:20:01;;;;;;;;;1.50;1.50;;;;;;;;4996788;28;11511;-75
2022/04/18 00:22:28;;;;;;;;;1.00;1.00;;;;;;;;5000333;28;11492;-74
2022/04/18 00:24:55;;;;;;;;;1.00;1.00;;;;;;;;5000131;28;11499;-75
2022/04/18 00:27:24;;;;;;;;;1.25;1.25;;;;;;;;5002647;28;11457;-75
2022/04/18 00:29:51;;;;;;;;;1.00;1.00;;;;;;;;4995400;28;11534;-74
2022/04/18 00:32:19;;;;;;;;;1.25;1.25;;;;;;;;4995868;28;11425;-74
2022/04/18 00:34:46;;;;;;;;;2.00;2.00;;;;;;;;4999917;28;12345;-75
2022/04/18 00:37:13;;;;;;;;;1.00;1.00;;;;;;;;5000746;28;11501;-74
2022/04/18 00:39:40;;;;;;;;;2.50;1.00;;;;;;;;4996347;28;11651;-74
2022/04/18 00:42:08;;;;;;;;;1.00;1.00;;;;;;;;4998518;28;11511;-75
2022/04/18 00:44:37;;;;;;;;;1.00;1.00;;;;;;;;5000075;28;11476;-74
2022/04/18 00:47:05;;;;;;;;;0.25;0.25;;;;;;;;5003391;28;11549;-75
2022/04/18 00:49:34;;;;;;;;;1.00;1.00;;;;;;;;4998528;28;11540;-75
2022/04/18 00:52:03;;;;;;;;;5.75;1.25;;;;;;;;5000716;28;11544;-75
2022/04/18 00:54:31;;;;;;;;;0.75;0.75;;;;;;;;5006973;28;11485;-74
2022/04/18 00:56:59;;;;;;;;;1.00;1.00;;;;;;;;4996938;28;11476;-75
2022/04/18 00:59:26;;;;;;;;;1.00;1.00;;;;;;;;4997222;28;11513;-74
2022/04/18 01:01:55;;;;;;;;;1.00;1.00;;;;;;;;4999232;28;11496;-75
2022/04/18 01:04:23;;;;;;;;;0.50;0.50;;;;;;;;4999767;28;11657;-75
2022/04/18 01:06:50;;;;;;;;;1.00;1.00;;;;;;;;5008052;28;11485;-75
2022/04/18 01:09:17;;;;;;;;;1.00;1.00;;;;;;;;4996517;28;11473;-76
2022/04/18 01:11:44;;;;;;;;;1.00;1.00;;;;;;;;4998695;28;11566;-74
2022/04/18 01:14:12;;;;;;;;;0.50;0.50;;;;;;;;5000536;28;11489;-75
2022/04/18 01:16:39;;;;;;;;;0.50;0.50;;;;;;;;4999733;28;11449;-75
2022/04/18 01:19:09;;;;;;;;;1.25;1.25;;;;;;;;4998520;28;11498;-75
2022/04/18 01:21:38;;;;;;;;;0.00;0.00;;;;;;;;4995102;28;11688;-74
2022/04/18 01:28:58;;;;;;;;;1.50;1.50;;;;;;;;4998091;28;11476;-75
2022/04/18 01:29:38;;;;;;;;;1.00;1.00;;;;;;;;4997844;28;11519;-75
2022/04/18 01:32:06;;;;;;;;;0.25;0.25;;;;;;;;4996476;28;11443;-73
2022/04/18 01:34:33;;;;;;;;;0.00;0.00;;;;;;;;4994098;28;11532;-74
2022/04/18 01:37:02;;;;;;;;;1.00;1.00;;;;;;;;4998570;28;11480;-75
2022/04/18 01:39:29;;;;;;;;;1.00;1.00;;;;;;;;4998747;28;11487;-75
2022/04/18 01:41:57;;;;;;;;;1.00;1.00;;;;;;;;4998315;28;12641;-75
2022/04/18 01:44:24;;;;;;;;;1.25;0.75;;;;;;;;4995755;28;12245;-75
2022/04/18 01:46:52;;;;;;;;;1.00;1.00;;;;;;;;5000569;28;11488;-75
2022/04/18 01:49:19;;;;;;;;;1.00;1.00;;;;;;;;4996746;28;11494;-74
2022/04/18 01:51:47;;;;;;;;;1.00;1.00;;;;;;;;5001219;28;11513;-75
2022/04/18 01:54:16;;;;;;;;;1.00;1.00;;;;;;;;5002227;28;11513;-75
2022/04/18 01:56:43;;;;;;;;;0.25;0.25;;;;;;;;4996936;28;11575;-75
2022/04/18 01:59:10;;;;;;;;;0.25;0.25;;;;;;;;5002290;28;11480;-75
2022/04/18 02:01:37;;;;;;;;;1.00;1.00;;;;;;;;4995819;28;11524;-74
2022/04/18 02:04:05;;;;;;;;;1.00;1.00;;;;;;;;4999428;28;11490;-75
2022/04/18 02:06:32;;;;;;;;;1.00;1.00;;;;;;;;4999443;28;11557;-75
2022/04/18 02:08:59;;;;;;;;;1.00;1.00;;;;;;;;5000400;28;11683;-75
2022/04/18 02:11:28;;;;;;;;;1.00;1.00;;;;;;;;5001932;28;11510;-74
2022/04/18 02:13:56;;;;;;;;;0.00;0.00;;;;;;;;4998337;28;11536;-74
2022/04/18 02:16:24;;;;;;;;;1.00;1.00;;;;;;;;5001299;28;11532;-75
2022/04/18 02:18:51;;;;;;;;;0.50;0.50;;;;;;;;5000219;28;11548;-75
2022/04/18 02:21:19;;;;;;;;;0.00;0.00;;;;;;;;4999809;28;11547;-74
2022/04/18 02:23:47;;;;;;;;;0.75;0.75;;;;;;;;4997381;28;11541;-75
2022/04/18 02:26:14;;;;;;;;;1.50;1.50;;;;;;;;4999700;28;11564;-75
2022/04/18 02:28:43;;;;;;;;;0.75;0.75;;;;;;;;4996751;28;11571;-75
2022/04/18 02:31:10;;;;;;;;;1.00;1.00;;;;;;;;4999488;28;11499;-75
2022/04/18 02:33:38;;;;;;;;;0.00;0.00;;;;;;;;4993757;28;11646;-75
2022/04/18 02:36:05;;;;;;;;;1.00;1.00;;;;;;;;4996133;28;12361;-75
2022/04/18 02:38:33;;;;;;;;;0.00;0.00;;;;;;;;5001622;28;11556;-75
2022/04/18 02:41:00;;;;;;;;;1.00;1.00;;;;;;;;4998436;28;11545;-75
2022/04/18 02:43:27;;;;;;;;;0.75;0.75;;;;;;;;4991840;28;11593;-75
2022/04/18 02:45:56;;;;;;;;;1.00;1.00;;;;;;;;4996727;28;12276;-74
2022/04/18 02:48:23;;;;;;;;;1.00;1.00;;;;;;;;4999122;28;11545;-75
2022/04/18 02:50:50;;;;;;;;;1.00;1.00;;;;;;;;5000399;28;11533;-75
2022/04/18 02:53:17;;;;;;;;;1.00;1.00;;;;;;;;5003314;28;11528;-75
2022/04/18 02:55:46;;;;;;;;;1.00;1.00;;;;;;;;5000912;28;11543;-75
2022/04/18 02:58:13;;;;;;;;;1.00;1.00;;;;;;;;4999624;28;11544;-75
2022/04/18 03:00:40;;;;;;;;;2.00;2.00;;;;;;;;5002922;28;11480;-75
2022/04/18 03:03:09;;;;;;;;;0.00;0.00;;;;;;;;4999241;28;11600;-74
2022/04/18 03:05:36;;;;;;;;;1.00;1.00;;;;;;;;5001730;28;11654;-74
2022/04/18 03:08:04;;;;;;;;;0.00;0.00;;;;;;;;5004227;28;11520;-75
2022/04/18 03:13:16;;;;;;;;;1.00;1.00;;;;;;;;5002548;28;11649;-75
2022/04/18 03:15:43;;;;;;;;;0.00;0.00;;;;;;;;5001613;28;11553;-75
2022/04/18 03:18:12;;;;;;;;;1.00;1.00;;;;;;;;4991905;28;11600;-75
2022/04/18 03:20:39;;;;;;;;;1.00;1.00;;;;;;;;5001534;28;11655;-75
2022/04/18 03:23:08;;;;;;;;;0.00;0.00;;;;;;;;4997561;28;11540;-74
2022/04/18 03:25:35;;;;;;;;;1.00;1.00;;;;;;;;4997919;28;11690;-75
2022/04/18 03:28:03;;;;;;;;;1.00;1.00;;;;;;;;4999830;28;11526;-75
2022/04/18 03:30:30;;;;;;;;;1.00;1.00;;;;;;;;5002499;28;11600;-75
2022/04/18 03:32:58;;;;;;;;;2.50;1.00;;;;;;;;5001020;28;11530;-75
2022/04/18 03:35:26;;;;;;;;;1.00;1.00;;;;;;;;4998226;28;11638;-75
2022/04/18 03:40:38;;;;;;;;;1.00;1.00;;;;;;;;5000889;28;11056;-74
2022/04/18 03:43:06;;;;;;;;;1.00;1.00;;;;;;;;5002819;28;11534;-75
2022/04/18 03:45:33;;;;;;;;;1.75;1.75;;;;;;;;5001892;28;11565;-74
2022/04/18 03:48:01;;;;;;;;;1.00;1.00;;;;;;;;5004414;28;11574;-75
2022/04/18 03:50:29;;;;;;;;;2.00;1.00;;;;;;;;4998365;28;11960;-75
2022/04/18 03:52:57;;;;;;;;;2.00;2.00;;;;;;;;5000839;28;12338;-75
2022/04/18 03:55:25;;;;;;;;;1.00;1.00;;;;;;;;5002239;28;11554;-75
2022/04/18 03:57:52;;;;;;;;;2.00;2.00;;;;;;;;5002406;28;11520;-75
2022/04/18 04:00:20;;;;;;;;;1.00;0.25;;;;;;;;5002634;28;11553;-76
2022/04/18 04:02:47;;;;;;;;;1.75;1.75;;;;;;;;5000351;28;11603;-75
2022/04/18 04:05:14;;;;;;;;;2.25;2.25;;;;;;;;5001836;28;11548;-75
2022/04/18 04:07:43;;;;;;;;;1.00;1.00;;;;;;;;4998296;28;11658;-75
2022/04/18 04:10:10;;;;;;;;;2.00;2.00;;;;;;;;4997079;28;11539;-74
2022/04/18 04:12:38;;;;;;;;;1.00;1.00;;;;;;;;4999823;28;12253;-73
2022/04/18 04:15:06;;;;;;;;;1.00;1.00;;;;;;;;5002138;28;11517;-74
2022/04/18 04:17:33;;;;;;;;;2.00;2.00;;;;;;;;4997873;28;11687;-75
2022/04/18 04:20:01;;;;;;;;;2.00;2.00;;;;;;;;4996794;28;11536;-75
2022/04/18 04:22:28;;;;;;;;;1.50;1.50;;;;;;;;5000472;28;11560;-74
2022/04/18 04:24:57;;;;;;;;;1.00;1.00;;;;;;;;5001783;28;11571;-75
2022/04/18 04:27:24;;;;;;;;;1.50;1.50;;;;;;;;5000607;28;11651;-74
2022/04/18 04:29:52;;;;;;;;;2.00;1.00;;;;;;;;5002075;28;11940;-75
2022/04/18 04:32:19;;;;;;;;;1.00;1.00;;;;;;;;4993158;28;11479;-74
2022/04/18 04:34:47;;;;;;;;;1.00;1.00;;;;;;;;4999919;28;11538;-75
2022/04/18 04:37:14;;;;;;;;;1.50;1.50;;;;;;;;5000560;28;11559;-75
2022/04/18 04:39:41;;;;;;;;;1.00;1.00;;;;;;;;5002306;28;11557;-75
2022/04/18 04:42:10;;;;;;;;;0.25;0.25;;;;;;;;4999209;28;11556;-75
2022/04/18 04:44:38;;;;;;;;;1.00;1.00;;;;;;;;5000254;28;11680;-75
2022/04/18 04:47:05;;;;;;;;;1.00;0.25;;;;;;;;5000046;28;11628;-75
2022/04/18 04:49:33;;;;;;;;;2.00;2.00;;;;;;;;4995072;28;11531;-75
2022/04/18 04:52:00;;;;;;;;;1.00;1.00;;;;;;;;5001691;28;11702;-75
2022/04/18 04:54:28;;;;;;;;;2.00;2.00;;;;;;;;4998033;28;11534;-75
2022/04/18 04:56:55;;;;;;;;;2.00;2.00;;;;;;;;5001295;28;11532;-73
2022/04/18 04:59:24;;;;;;;;;1.00;1.00;;;;;;;;5000434;28;11540;-74
2022/04/18 05:01:51;;;;;;;;;0.50;0.00;;;;;;;;4999249;28;11500;-74
2022/04/18 05:04:18;;;;;;;;;0.00;0.00;;;;;;;;4999856;28;11522;-73
2022/04/18 05:06:46;;;;;;;;;1.25;1.25;;;;;;;;5001190;28;11565;-75
2022/04/18 05:09:13;;;;;;;;;2.00;1.25;;;;;;;;5000736;28;11516;-75
2022/04/18 05:11:40;;;;;;;;;2.00;2.00;;;;;;;;4998133;28;11560;-75
2022/04/18 05:14:07;;;;;;;;;2.50;2.50;;;;;;;;5002779;28;11530;-75
2022/04/18 05:16:36;;;;;;;;;2.00;2.00;;;;;;;;4998939;28;12341;-76
2022/04/18 05:19:03;;;;;;;;;2.00;2.00;;;;;;;;4993270;28;11693;-75
2022/04/18 05:21:31;;;;;;;;;3.50;2.00;;;;;;;;4991750;28;11558;-75
2022/04/18 05:23:58;;;;;;;;;1.75;1.00;;;;;;;;5001194;28;11566;-75
2022/04/18 05:26:25;;;;;;;;;5.00;2.25;;;;;;;;4998843;28;11552;-75
2022/04/18 05:28:52;;;;;;;;;5.00;5.00;;;;;;;;4996401;28;11615;-75
2022/04/18 05:31:20;;;;;;;;;2.75;2.75;;;;;;;;4996689;28;11616;-74
2022/04/18 05:33:49;;;;;;;;;3.00;3.00;;;;;;;;4994217;28;12391;-75
2022/04/18 05:36:16;;;;;;;;;2.00;2.00;;;;;;;;4998144;28;11552;-75
2022/04/18 05:38:45;;;;;;;;;4.00;4.00;;;;;;;;4997700;28;12952;-75
2022/04/18 05:41:12;;;;;;;;;4.25;4.00;;;;;;;;4997940;28;11677;-74
2022/04/18 05:43:39;;;;;;;;;5.00;5.00;;;;;;;;4998760;28;11530;-75
2022/04/18 05:46:06;;;;;;;;;4.00;4.00;;;;;;;;4999983;28;11698;-75
2022/04/18 05:48:34;;;;;;;;;3.00;3.00;;;;;;;;4999613;28;11597;-75
2022/04/18 05:51:02;;;;;;;;;3.00;3.00;;;;;;;;4996411;28;11531;-74
2022/04/18 05:53:30;;;;;;;;;5.00;5.00;;;;;;;;5002964;28;11629;-74
2022/04/18 05:55:57;;;;;;;;;5.00;5.00;;;;;;;;4998997;28;11536;-75
2022/04/18 05:58:26;;;;;;;;;6.25;6.25;;;;;;;;5002148;28;11628;-76
2022/04/18 06:00:54;;;;;;;;;6.25;5.25;;;;;;;;4995560;28;11575;-76
2022/04/18 06:03:21;;;;;;;;;7.00;5.75;;;;;;;;4996817;28;11670;-79
2022/04/18 06:05:49;;;;;;;;;8.25;6.00;;;;;;;;5004923;28;12339;-77
2022/04/18 06:08:18;;;;;;;;;7.25;5.50;;;;;;;;5001015;28;12297;-78
2022/04/18 06:10:46;;;;;;;;;5.25;5.25;;;;;;;;4994970;28;11677;-78
2022/04/18 06:13:13;;;;;;;;;6.75;6.75;;;;;;;;4986805;28;12418;-79
2022/04/18 06:15:40;;;;;;;;;2.25;2.25;;;;;;;;4987942;28;11583;-80
2022/04/18 06:18:08;;;;;;;;;4.50;4.50;;;;;;;;4998311;28;11567;-79
2022/04/18 06:20:35;;;;;;;;;6.75;5.50;;;;;;;;4994898;28;12125;-79
2022/04/18 06:23:02;;;;;;;;;6.25;5.75;;;;;;;;4992451;28;11573;-78
2022/04/18 06:25:31;;;;;;;;;6.00;6.00;;;;;;;;4988011;28;11535;-82
2022/04/18 06:27:59;;;;;;;;;4.50;4.50;;;;;;;;4996061;28;11640;-89
2022/04/18 06:30:26;;;;;;;;;7.00;6.25;;;;;;;;4991691;28;12266;-83
2022/04/18 06:32:54;;;;;;;;;5.25;5.25;;;;;;;;4997477;28;11655;-81
2022/04/18 06:35:21;;;;;;;;;1.00;1.00;;;;;;;;4999113;28;11656;-81
2022/04/18 06:37:48;;;;;;;;;7.00;5.25;;;;;;;;5000478;28;11576;-88
2022/04/18 06:40:16;;;;;;;;;6.00;6.00;;;;;;;;4999588;28;11544;-87
2022/04/18 06:42:51;;;;;;;;;6.00;6.00;;;;;;;;4997508;28;11572;-84
2022/04/18 06:45:19;;;;;;;;;6.00;5.25;;;;;;;;5001302;28;11519;-80
2022/04/18 06:47:46;;;;;;;;;6.00;6.00;;;;;;;;4998618;28;12262;-79
2022/04/18 06:50:14;;;;;;;;;5.00;5.00;;;;;;;;5007300;28;12351;-78
2022/04/18 06:52:42;;;;;;;;;3.75;3.75;;;;;;;;5002138;28;12213;-77
2022/04/18 06:55:10;;;;;;;;;5.25;3.50;;;;;;;;4999974;28;11472;-76
2022/04/18 06:57:36;;;;;;;;;6.00;5.00;;;;;;;;4999124;28;11503;-80
2022/04/18 07:00:06;;;;;;;;;4.50;4.50;;;;;;;;5003174;28;12432;-81
2022/04/18 07:02:33;;;;;;;;;5.00;5.00;;;;;;;;5007526;28;11537;-81
2022/04/18 07:05:01;;;;;;;;;3.50;3.50;;;;;;;;5003843;28;11951;-80
2022/04/18 07:07:28;;;;;;;;;4.00;4.00;;;;;;;;5003107;28;11194;-78
2022/04/18 07:09:56;;;;;;;;;2.25;2.25;;;;;;;;4996854;28;11127;-85
2022/04/18 07:12:23;;;;;;;;;2.00;2.00;;;;;;;;5002627;28;10957;-82
2022/04/18 07:14:51;;;;;;;;;3.50;3.50;;;;;;;;4999177;28;11001;-89
2022/04/18 07:17:20;;;;;;;;;2.75;2.00;;;;;;;;5001464;28;11109;-82
2022/04/18 07:19:47;;;;;;;;;3.00;3.00;;;;;;;;5003864;28;10791;-79
2022/04/18 07:22:15;;;;;;;;;4.00;3.00;;;;;;;;5004830;28;10838;-81
2022/04/18 07:24:42;;;;;;;;;5.00;5.00;;;;;;;;5004112;28;10947;-79
2022/04/18 07:27:09;;;;;;;;;6.25;4.00;;;;;;;;4999061;28;10794;-81
2022/04/18 07:29:37;;;;;;;;;6.00;6.00;;;;;;;;5005913;28;10993;-80
2022/04/18 07:32:06;;;;;;;;;6.75;5.00;;;;;;;;5001801;28;10815;-81
2022/04/18 07:34:34;;;;;;;;;3.00;3.00;;;;;;;;5002880;28;10569;-81
2022/04/18 07:37:02;;;;;;;;;6.25;5.50;;;;;;;;5005091;28;10638;-80
2022/04/18 07:39:29;;;;;;;;;5.00;5.00;;;;;;;;4985007;28;10652;-81
2022/04/18 07:41:56;;;;;;;;;7.50;5.00;;;;;;;;4984592;28;10500;-81
2022/04/18 07:44:24;;;;;;;;;6.25;3.50;;;;;;;;5001730;28;10482;-81
2022/04/18 07:46:51;;;;;;;;;5.00;5.00;;;;;;;;5005251;28;10546;-80
2022/04/18 07:49:18;;;;;;;;;4.00;4.00;;;;;;;;5004016;28;11423;-81
2022/04/18 07:51:47;;;;;;;;;3.75;3.75;;;;;;;;5006994;28;10290;-80
2022/04/18 07:54:17;;;;;;;;;4.00;4.00;;;;;;;;5018585;28;10282;-81
2022/04/18 07:56:44;;;;;;;;;3.00;3.00;;;;;;;;5019359;28;11142;-81
2022/04/18 07:59:12;;;;;;;;;5.25;3.00;;;;;;;;5005478;28;10128;-81
2022/04/18 08:01:39;;;;;;;;;3.75;3.75;;;;;;;;5003132;28;10201;-82
2022/04/18 08:04:06;;;;;;;;;5.75;4.00;;;;;;;;4998104;28;10895;-81
2022/04/18 08:06:35;;;;;;;;;6.50;4.00;;;;;;;;4983999;28;9976;-81
2022/04/18 08:09:04;;;;;;;;;4.00;4.00;;;;;;;;4997076;28;9902;-81
2022/04/18 08:11:31;;;;;;;;;8.00;4.00;;;;;;;;5013150;28;10960;-81
2022/04/18 08:13:59;;;;;;;;;4.00;4.00;;;;;;;;5005406;28;9732;-81
2022/04/18 08:16:26;;;;;;;;;3.00;3.00;;;;;;;;5004005;28;9903;-80
2022/04/18 08:18:53;;;;;;;;;4.00;4.00;;;;;;;;5004590;28;9689;-81
2022/04/18 08:21:21;;;;;;;;;7.25;7.25;;;;;;;;5003311;28;9614;-82
2022/04/18 08:23:50;;;;;;;;;4.00;4.00;;;;;;;;5002599;28;9959;-81
2022/04/18 08:26:21;;;;;;;;;7.75;5.25;;;;;;;;5004473;28;9426;-81
2022/04/18 08:28:48;;;;;;;;;5.00;5.00;;;;;;;;5010034;28;9544;-81
2022/04/18 08:31:15;;;;;;;;;4.00;4.00;;;;;;;;4996526;28;9392;-81
2022/04/18 08:33:43;;;;;;;;;4.67;3.67;;;;;;;;5002640;28;9332;-82
2022/04/18 08:36:10;;;;;;;;;3.67;3.67;;;;;;;;4991842;28;9348;-82
2022/04/18 08:38:37;;;;;;;;;3.33;3.33;;;;;;;;5004877;28;9279;-82
2022/04/18 08:41:07;;;;;;;;;5.00;5.00;;;;;;;;5003322;28;9944;-82
2022/04/18 08:43:36;;;;;;;;;2.00;2.00;;;;;;;;5003309;28;9205;-82
2022/04/18 08:46:06;;;;;;;;;3.00;3.00;;;;;;;;4986570;28;9101;-81
2022/04/18 08:54:07;;;;;;;;;4.00;4.00;;;;;;;;5001119;28;8838;-82
2022/04/18 08:56:35;;;;;;;;;4.00;4.00;;;;;;;;4993812;28;8860;-81
2022/04/18 08:59:04;;;;;;;;;4.75;4.75;;;;;;;;4989769;28;8903;-82
2022/04/18 09:01:31;;;;;;;;;4.00;4.00;;;;;;;;5003229;28;8809;-82
2022/04/18 09:04:00;;;;;;;;;3.00;3.00;;;;;;;;4999674;28;8973;-82
2022/04/18 09:06:27;;;;;;;;;5.00;5.00;;;;;;;;4995869;28;8954;-81
2022/04/18 09:08:57;;;;;;;;;2.75;2.75;;;;;;;;5003244;28;8864;-81
2022/04/18 09:11:29;;;;;;;;;3.25;3.25;;;;;;;;5002661;28;8872;-81
2022/04/18 09:14:00;;;;;;;;;3.75;3.75;;;;;;;;5003803;28;9686;-82
2022/04/18 09:16:32;;;;;;;;;2.75;2.75;;;;;;;;4992352;28;9620;-81
2022/04/18 09:19:09;;;;;;;;;6.25;4.75;;;;;;;;5006234;28;8929;-82
2022/04/18 09:21:41;;;;;;;;;3.25;3.25;;;;;;;;5002921;28;8864;-82
2022/04/18 09:24:12;;;;;;;;;4.00;4.00;;;;;;;;5002998;28;8898;-81
2022/04/18 09:26:39;;;;;;;;;3.25;3.25;;;;;;;;4997771;28;8860;-81
2022/04/18 09:29:07;;;;;;;;;4.00;4.00;;;;;;;;4993734;28;8989;-82
2022/04/18 09:31:42;;;;;;;;;4.00;4.00;;;;;;;;4998205;28;8897;-81
2022/04/18 09:34:09;;;;;;;;;3.00;3.00;;;;;;;;4992776;28;8891;-81
2022/04/18 09:36:37;;;;;;;;;1.25;1.25;;;;;;;;5002385;28;8879;-82
2022/04/18 09:39:04;;;;;;;;;4.25;4.25;;;;;;;;5003193;28;8891;-81
2022/04/18 09:41:33;;;;;;;;;5.00;3.50;;;;;;;;5002543;28;8918;-82
2022/04/18 09:44:02;;;;;;;;;2.00;2.00;;;;;;;;5000819;28;9654;-81
2022/04/18 09:46:29;;;;;;;;;4.25;4.25;;;;;;;;5002280;28;8876;-82
2022/04/18 09:49:05;;;;;;;;;3.00;3.00;;;;;;;;5002479;28;8872;-81
2022/04/18 09:51:34;;;;;;;;;4.50;4.50;;;;;;;;5002954;28;8907;-82
2022/04/18 09:54:02;;;;;;;;;4.25;2.75;;;;;;;;5010100;28;8888;-82
2022/04/18 09:56:30;;;;;;;;;4.00;4.00;;;;;;;;5003009;28;8880;-81
2022/04/18 09:58:58;;;;;;;;;3.00;3.00;;;;;;;;5002352;28;9719;-82
2022/04/18 10:01:26;;;;;;;;;4.00;3.00;;;;;;;;5003047;28;8797;-82
2022/04/18 10:03:55;;;;;;;;;3.00;3.00;;;;;;;;4995979;28;9667;-82
2022/04/18 10:06:24;;;;;;;;;3.00;3.00;;;;;;;;5005478;28;8895;-82
2022/04/18 10:08:52;;;;;;;;;3.75;3.75;;;;;;;;5005890;28;8872;-82
2022/04/18 10:11:22;;;;;;;;;4.50;2.75;;;;;;;;4999739;28;8890;-81
2022/04/18 10:13:50;;;;;;;;;4.00;4.00;;;;;;;;4988671;28;8858;-82
2022/04/18 10:16:17;;;;;;;;;5.75;4.50;;;;;;;;4995712;28;8906;-82
2022/04/18 10:18:50;;;;;;;;;4.25;3.75;;;;;;;;5005005;28;9001;-82
2022/04/18 10:21:27;;;;;;;;;3.25;2.75;;;;;;;;5006106;28;8896;-82
2022/04/18 10:24:21;;;;;;;;;4.00;4.00;;;;;;;;5010457;28;8873;-82
2022/04/18 10:27:14;;;;;;;;;4.00;4.00;;;;;;;;5017420;28;8968;-82
2022/04/18 10:29:43;;;;;;;;;5.00;5.00;;;;;;;;4995961;28;9696;-82
2022/04/18 10:32:13;;;;;;;;;4.00;4.00;;;;;;;;5003615;28;8901;-82
2022/04/18 10:34:40;;;;;;;;;5.20;3.80;;;;;;;;4994811;28;8867;-82
2022/04/18 10:37:10;;;;;;;;;5.75;5.75;;;;;;;;5007871;28;9689;-82
2022/04/18 10:39:39;;;;;;;;;3.00;3.00;;;;;;;;5010857;28;9017;-83
2022/04/18 10:42:21;;;;;;;;;3.00;3.00;;;;;;;;5005413;28;8912;-83
2022/04/18 10:45:03;;;;;;;;;4.20;3.20;;;;;;;;5005862;28;8852;-82
2022/04/18 10:48:16;;;;;;;;;4.00;4.00;;;;;;;;5005343;28;8957;-82
2022/04/18 10:50:45;;;;;;;;;4.40;4.20;;;;;;;;5004064;28;8929;-83
2022/04/18 10:53:17;;;;;;;;;2.80;2.80;;;;;;;;5006568;28;8961;-82
2022/04/18 10:56:12;;;;;;;;;4.00;4.00;;;;;;;;5001599;28;8870;-81
2022/04/18 10:58:43;;;;;;;;;3.20;3.20;;;;;;;;5005504;28;8864;-82
2022/04/18 11:01:11;;;;;;;;;3.00;3.00;;;;;;;;5013210;28;8828;-84
2022/04/18 11:03:44;;;;;;;;;4.40;4.40;;;;;;;;4997123;28;8886;-82
2022/04/18 11:06:36;;;;;;;;;3.00;3.00;;;;;;;;5003515;28;8857;-82
2022/04/18 11:09:07;;;;;;;;;7.80;4.00;;;;;;;;4999360;28;9682;-82
2022/04/18 11:11:36;;;;;;;;;4.20;4.20;;;;;;;;5001059;28;9765;-82
2022/04/18 11:14:06;;;;;;;;;4.40;4.40;;;;;;;;4985026;28;8891;-83
2022/04/18 11:16:51;;;;;;;;;5.20;3.00;;;;;;;;4991636;28;10390;-81
2022/04/18 11:19:20;;;;;;;;;4.80;4.00;;;;;;;;5000708;28;9702;-82
2022/04/18 11:22:21;;;;;;;;;3.80;3.80;;;;;;;;5004631;28;8888;-82
2022/04/18 11:25:00;;;;;;;;;3.00;3.00;;;;;;;;5004124;28;9006;-82
2022/04/18 11:27:45;;;;;;;;;3.00;3.00;;;;;;;;4992994;28;8946;-83
2022/04/18 11:30:15;;;;;;;;;4.00;4.00;;;;;;;;5004026;28;9491;-82
2022/04/18 11:32:44;;;;;;;;;3.20;3.20;;;;;;;;5005360;28;9007;-82
2022/04/18 11:35:13;;;;;;;;;4.40;2.60;;;;;;;;5011088;28;8852;-82
2022/04/18 11:37:43;;;;;;;;;4.00;4.00;;;;;;;;5006812;28;8856;-82
2022/04/18 11:40:14;;;;;;;;;3.80;3.80;;;;;;;;5004590;28;9007;-83
2022/04/18 11:42:42;;;;;;;;;3.60;2.80;;;;;;;;4999091;28;8880;-83
2022/04/18 11:45:11;;;;;;;;;3.80;3.80;;;;;;;;5004902;28;8945;-83
2022/04/18 11:47:41;;;;;;;;;3.00;3.00;;;;;;;;5004707;28;8888;-82
2022/04/18 11:50:09;;;;;;;;;2.80;2.80;;;;;;;;5004462;28;8961;-82
2022/04/18 11:52:38;;;;;;;;;5.00;5.00;;;;;;;;5008963;28;8896;-83
2022/04/18 11:55:07;;;;;;;;;5.80;5.20;;;;;;;;5000590;28;8923;-82
2022/04/18 11:57:37;;;;;;;;;3.00;3.00;;;;;;;;4995179;28;8868;-82
2022/04/18 12:00:07;;;;;;;;;4.00;4.00;;;;;;;;4991684;28;8896;-82
2022/04/18 12:08:08;;;;;;;;;4.60;3.60;;;;;;;;5005831;28;8896;-82
2022/04/18 12:10:37;;;;;;;;;5.00;5.00;;;;;;;;5004152;28;8884;-84
2022/04/18 12:13:08;;;;;;;;;5.00;5.00;;;;;;;;5000104;28;8951;-82
2022/04/18 12:15:36;;;;;;;;;5.00;5.00;;;;;;;;4987454;28;8902;-83
2022/04/18 12:18:12;;;;;;;;;3.60;3.20;;;;;;;;4986589;28;9008;-83
2022/04/18 12:20:42;;;;;;;;;3.60;3.60;;;;;;;;4987054;28;8875;-82
2022/04/18 12:23:12;;;;;;;;;5.20;5.20;;;;;;;;4982545;28;8875;-82
2022/04/18 12:25:45;;;;;;;;;3.40;3.40;;;;;;;;4999934;28;9692;-82
2022/04/18 12:28:15;;;;;;;;;3.20;3.20;;;;;;;;5005113;28;8888;-82
2022/04/18 12:30:42;;;;;;;;;1.40;1.40;;;;;;;;5003693;28;8823;-83
2022/04/18 12:33:15;;;;;;;;;4.00;3.00;;;;;;;;5003502;28;8872;-82
2022/04/18 12:35:43;;;;;;;;;4.20;2.80;;;;;;;;5004487;28;8876;-82
2022/04/18 12:38:12;;;;;;;;;2.00;2.00;;;;;;;;5015686;28;9003;-83
2022/04/18 12:40:41;;;;;;;;;4.00;4.00;;;;;;;;5003670;28;8938;-84
2022/04/18 12:43:09;;;;;;;;;1.60;1.60;;;;;;;;4999151;28;9478;-82
2022/04/18 12:45:47;;;;;;;;;2.40;2.40;;;;;;;;5013410;28;8882;-84
2022/04/18 12:48:15;;;;;;;;;2.60;2.60;;;;;;;;5001956;28;8899;-83
2022/04/18 12:50:42;;;;;;;;;3.00;3.00;;;;;;;;5003818;28;8860;-82
2022/04/18 12:53:10;;;;;;;;;3.00;2.80;;;;;;;;4984874;28;8882;-82
2022/04/18 12:55:37;;;;;;;;;3.60;3.60;;;;;;;;4984306;28;8921;-83
2022/04/18 12:58:16;;;;;;;;;2.60;2.60;;;;;;;;4997738;28;8876;-83
2022/04/18 13:00:47;;;;;;;;;5.80;4.20;;;;;;;;5004893;28;8792;-83
2022/04/18 13:03:15;;;;;;;;;4.20;4.20;;;;;;;;5004298;28;8979;-84
2022/04/18 13:05:44;;;;;;;;;3.00;3.00;;;;;;;;5002831;28;8879;-82
2022/04/18 13:08:13;;;;;;;;;4.60;4.60;;;;;;;;5003848;28;9010;-83
2022/04/18 13:10:41;;;;;;;;;3.00;3.00;;;;;;;;5002940;28;8888;-82
2022/04/18 13:13:11;;;;;;;;;2.40;2.40;;;;;;;;5004024;28;8876;-83
2022/04/18 13:15:40;;;;;;;;;3.00;3.00;;;;;;;;5004230;28;8886;-82
2022/04/18 13:18:10;;;;;;;;;3.80;3.80;;;;;;;;5005537;28;8894;-82
2022/04/18 13:20:39;;;;;;;;;3.40;2.80;;;;;;;;5003298;28;8866;-83
2022/04/18 13:23:07;;;;;;;;;2.80;2.80;;;;;;;;5001978;28;9663;-82
2022/04/18 13:25:35;;;;;;;;;2.80;2.80;;;;;;;;5003451;28;8938;-82
2022/04/18 13:28:06;;;;;;;;;1.80;1.80;;;;;;;;5002990;28;8860;-80
2022/04/18 13:30:36;;;;;;;;;1.60;1.60;;;;;;;;5003368;28;8864;-80
2022/04/18 13:33:05;;;;;;;;;2.80;2.80;;;;;;;;5003057;28;8887;-80
2022/04/18 13:38:21;;;;;;;;;3.00;3.00;;;;;;;;5002150;28;9697;-80
2022/04/18 13:40:49;;;;;;;;;3.00;3.00;;;;;;;;4984321;28;8902;-82
2022/04/18 13:43:16;;;;;;;;;3.00;3.00;;;;;;;;4986857;28;8925;-82
2022/04/18 13:45:43;;;;;;;;;2.00;2.00;;;;;;;;4989528;28;8958;-80
2022/04/18 13:48:11;;;;;;;;;0.80;0.80;;;;;;;;4996839;28;8912;-81
2022/04/18 13:50:40;;;;;;;;;2.80;2.80;;;;;;;;5003456;28;8893;-81
2022/04/18 13:53:07;;;;;;;;;1.80;1.80;;;;;;;;5002416;28;8899;-83
2022/04/18 13:55:35;;;;;;;;;4.00;2.00;;;;;;;;5003053;28;8877;-82
2022/04/18 13:58:02;;;;;;;;;2.80;2.80;;;;;;;;4994088;28;8891;-83
2022/04/18 14:00:30;;;;;;;;;3.60;3.60;;;;;;;;4985913;28;8792;-84
2022/04/18 14:02:57;;;;;;;;;2.60;2.60;;;;;;;;4991288;28;8918;-83
2022/04/18 14:05:24;;;;;;;;;2.60;2.60;;;;;;;;4999140;28;8884;-81
2022/04/18 14:07:54;;;;;;;;;4.20;4.20;;;;;;;;5004995;28;8956;-83
2022/04/18 14:10:22;;;;;;;;;3.40;3.40;;;;;;;;5003868;28;8891;-81
2022/04/18 14:12:49;;;;;;;;;3.00;3.00;;;;;;;;5003292;28;8860;-80
2022/04/18 14:20:46;;;;;;;;;4.80;4.80;;;;;;;;4982999;28;8866;-80
2022/04/18 14:23:15;;;;;;;;;4.00;4.00;;;;;;;;4983842;28;8905;-80
2022/04/18 14:25:42;;;;;;;;;4.80;4.80;;;;;;;;5002748;28;8864;-81
2022/04/18 14:28:09;;;;;;;;;5.00;5.00;;;;;;;;5002058;28;8880;-81
2022/04/18 14:30:40;;;;;;;;;4.40;4.40;;;;;;;;5002640;28;8768;-80
2022/04/18 14:33:08;;;;;;;;;4.20;4.20;;;;;;;;5002146;28;8953;-81
2022/04/18 14:35:35;;;;;;;;;4.40;4.40;;;;;;;;5002961;28;8888;-82
2022/04/18 14:38:04;;;;;;;;;5.60;5.60;;;;;;;;5004506;28;8876;-82
2022/04/18 14:40:33;;;;;;;;;4.40;4.40;;;;;;;;4991947;28;8926;-81
2022/04/18 14:43:00;;;;;;;;;4.20;3.80;;;;;;;;5017117;28;9065;-81
2022/04/18 14:45:27;;;;;;;;;4.60;4.60;;;;;;;;5000918;28;10251;-81
2022/04/18 14:47:55;;;;;;;;;4.00;4.00;;;;;;;;5002513;28;8856;-82
2022/04/18 14:50:23;;;;;;;;;4.20;4.20;;;;;;;;4986121;28;9013;-82
2022/04/18 14:52:50;;;;;;;;;4.60;4.60;;;;;;;;4985761;28;8891;-81
2022/04/18 14:55:17;;;;;;;;;4.40;4.40;;;;;;;;4985016;28;8932;-82
2022/04/18 14:57:46;;;;;;;;;5.00;5.00;;;;;;;;4999496;28;8857;-82
2022/04/18 15:00:14;;;;;;;;;4.80;4.80;;;;;;;;5005690;28;8880;-82
2022/04/18 15:02:43;;;;;;;;;3.60;3.60;;;;;;;;5005032;28;8868;-81
2022/04/18 15:05:11;;;;;;;;;4.20;4.20;;;;;;;;5000205;28;8852;-82
2022/04/18 15:07:39;;;;;;;;;4.00;4.00;;;;;;;;5005349;28;9009;-81
2022/04/18 15:10:06;;;;;;;;;3.60;3.60;;;;;;;;4988759;28;8911;-82
2022/04/18 15:12:34;;;;;;;;;3.00;3.00;;;;;;;;5003493;28;8988;-84
2022/04/18 15:15:03;;;;;;;;;3.20;3.20;;;;;;;;5009764;28;8915;-82
2022/04/18 15:17:30;;;;;;;;;3.00;3.00;;;;;;;;5025469;28;8857;-81
2022/04/18 15:19:58;;;;;;;;;5.20;5.20;;;;;;;;4997505;28;8866;-81
2022/04/18 15:22:25;;;;;;;;;3.80;3.80;;;;;;;;5002920;28;8894;-82
2022/04/18 15:24:52;;;;;;;;;4.00;4.00;;;;;;;;5004649;28;9006;-80